sensor_id;sensor_type;location;lat;lon;timestamp;temperature;humidity
21167;DHT22;10741;52.272;9.580;2023-02-15T00:00:22;2.80;99.90
21167;DHT22;10741;52.272;9.580;2023-02-15T00:02:48;2.80;99.90
21167;DHT22;10741;52.272;9.580;2023-02-15T00:05:13;2.80;99.90
21167;DHT22;10741;52.272;9.580;2023-02-15T00:07:39;2.70;99.90
21167;DHT22;10741;52.272;9.580;2023-02-15T00:10:06;2.60;99.90
21167;DHT22;10741;52.272;9.580;2023-02-15T00:12:32;2.40;99.90
21167;DHT22;10741;52.272;9.580;2023-02-15T00:14:58;2.20;99.90
21167;DHT22;10741;52.272;9.580;2023-02-15T00:17:26;2.10;99.90
21167;DHT22;10741;52.272;9.580;2023-02-15T00:19:52;2.00;99.90
21167;DHT22;10741;52.272;9.580;2023-02-15T00:22:18;2.00;99.90
21167;DHT22;10741;52.272;9.580;2023-02-15T00:24:44;2.00;99.90
21167;DHT22;10741;52.272;9.580;2023-02-15T00:27:09;2.00;99.90
21167;DHT22;10741;52.272;9.580;2023-02-15T00:29:35;2.10;99.90
21167;DHT22;10741;52.272;9.580;2023-02-15T00:32:01;2.20;99.90
21167;DHT22;10741;52.272;9.580;2023-02-15T00:34:27;2.20;99.90
21167;DHT22;10741;52.272;9.580;2023-02-15T00:36:53;2.20;99.90
21167;DHT22;10741;52.272;9.580;2023-02-15T00:39:19;2.50;99.90
21167;DHT22;10741;52.272;9.580;2023-02-15T00:41:46;2.60;99.90
21167;DHT22;10741;52.272;9.580;2023-02-15T00:44:13;2.80;99.90
21167;DHT22;10741;52.272;9.580;2023-02-15T00:46:38;2.80;99.90
21167;DHT22;10741;52.272;9.580;2023-02-15T00:49:04;2.70;99.90
21167;DHT22;10741;52.272;9.580;2023-02-15T00:51:31;2.60;99.90
21167;DHT22;10741;52.272;9.580;2023-02-15T00:53:57;2.60;99.90
21167;DHT22;10741;52.272;9.580;2023-02-15T00:56:23;2.60;99.90
21167;DHT22;10741;52.272;9.580;2023-02-15T00:58:48;2.60;99.90
21167;DHT22;10741;52.272;9.580;2023-02-15T01:01:17;2.60;99.90
21167;DHT22;10741;52.272;9.580;2023-02-15T01:03:43;2.60;99.90
21167;DHT22;10741;52.272;9.580;2023-02-15T01:06:11;2.50;99.90
21167;DHT22;10741;52.272;9.580;2023-02-15T01:08:37;2.40;99.90
21167;DHT22;10741;52.272;9.580;2023-02-15T01:11:10;2.30;99.90
21167;DHT22;10741;52.272;9.580;2023-02-15T01:13:36;2.10;99.90
21167;DHT22;10741;52.272;9.580;2023-02-15T01:16:03;2.00;99.90
21167;DHT22;10741;52.272;9.580;2023-02-15T01:18:29;1.80;99.90
21167;DHT22;10741;52.272;9.580;2023-02-15T01:20:55;1.70;99.90
21167;DHT22;10741;52.272;9.580;2023-02-15T01:23:21;1.70;99.90
21167;DHT22;10741;52.272;9.580;2023-02-15T01:25:47;1.60;99.90
21167;DHT22;10741;52.272;9.580;2023-02-15T01:28:12;1.60;99.90
21167;DHT22;10741;52.272;9.580;2023-02-15T01:30:38;1.50;99.90
21167;DHT22;10741;52.272;9.580;2023-02-15T01:33:04;1.40;99.90
21167;DHT22;10741;52.272;9.580;2023-02-15T01:35:30;1.40;99.90
21167;DHT22;10741;52.272;9.580;2023-02-15T01:37:57;1.30;99.90
21167;DHT22;10741;52.272;9.580;2023-02-15T01:40:23;1.20;99.90
21167;DHT22;10741;52.272;9.580;2023-02-15T01:42:53;1.10;99.90
21167;DHT22;10741;52.272;9.580;2023-02-15T01:45:30;1.00;99.90
21167;DHT22;10741;52.272;9.580;2023-02-15T01:48:02;1.00;99.90
21167;DHT22;10741;52.272;9.580;2023-02-15T01:50:30;0.90;99.90
21167;DHT22;10741;52.272;9.580;2023-02-15T01:55:57;0.80;99.90
21167;DHT22;10741;52.272;9.580;2023-02-15T01:58:26;0.80;99.90
21167;DHT22;10741;52.272;9.580;2023-02-15T02:00:53;0.80;99.90
21167;DHT22;10741;52.272;9.580;2023-02-15T02:03:34;0.80;99.90
21167;DHT22;10741;52.272;9.580;2023-02-15T02:06:02;0.70;99.90
21167;DHT22;10741;52.272;9.580;2023-02-15T02:08:28;0.70;99.90
21167;DHT22;10741;52.272;9.580;2023-02-15T02:10:53;0.60;99.90
21167;DHT22;10741;52.272;9.580;2023-02-15T02:13:19;0.50;99.90
21167;DHT22;10741;52.272;9.580;2023-02-15T02:18:59;0.50;99.90
21167;DHT22;10741;52.272;9.580;2023-02-15T02:49:15;0.20;99.90
21167;DHT22;10741;52.272;9.580;2023-02-15T02:51:41;0.20;99.90
21167;DHT22;10741;52.272;9.580;2023-02-15T02:54:06;0.20;99.90
21167;DHT22;10741;52.272;9.580;2023-02-15T02:56:43;0.20;99.90
21167;DHT22;10741;52.272;9.580;2023-02-15T02:59:24;0.20;99.90
21167;DHT22;10741;52.272;9.580;2023-02-15T03:02:02;0.10;99.90
21167;DHT22;10741;52.272;9.580;2023-02-15T03:04:36;0.10;99.90
21167;DHT22;10741;52.272;9.580;2023-02-15T03:07:07;0.10;99.90
21167;DHT22;10741;52.272;9.580;2023-02-15T03:09:42;0.20;99.90
21167;DHT22;10741;52.272;9.580;2023-02-15T03:12:24;0.20;99.90
21167;DHT22;10741;52.272;9.580;2023-02-15T03:14:55;0.20;99.90
21167;DHT22;10741;52.272;9.580;2023-02-15T03:17:23;0.20;99.90
21167;DHT22;10741;52.272;9.580;2023-02-15T03:19:52;0.20;99.90
21167;DHT22;10741;52.272;9.580;2023-02-15T03:22:28;0.10;99.90
21167;DHT22;10741;52.272;9.580;2023-02-15T03:27:39;0.10;99.90
21167;DHT22;10741;52.272;9.580;2023-02-15T03:30:07;0.10;99.90
21167;DHT22;10741;52.272;9.580;2023-02-15T03:32:34;0.00;99.90
21167;DHT22;10741;52.272;9.580;2023-02-15T03:35:02;0.00;99.90
21167;DHT22;10741;52.272;9.580;2023-02-15T03:37:38;-0.10;99.90
21167;DHT22;10741;52.272;9.580;2023-02-15T03:45:46;-0.10;99.90
21167;DHT22;10741;52.272;9.580;2023-02-15T03:48:55;-0.10;99.90
21167;DHT22;10741;52.272;9.580;2023-02-15T03:51:29;-0.10;99.90
21167;DHT22;10741;52.272;9.580;2023-02-15T03:54:09;-0.20;99.90
21167;DHT22;10741;52.272;9.580;2023-02-15T03:56:38;-0.20;99.90
21167;DHT22;10741;52.272;9.580;2023-02-15T03:59:04;-0.20;99.90
21167;DHT22;10741;52.272;9.580;2023-02-15T04:02:44;-0.20;99.90
21167;DHT22;10741;52.272;9.580;2023-02-15T04:04:49;-0.20;99.90
21167;DHT22;10741;52.272;9.580;2023-02-15T04:07:15;-0.30;99.90
21167;DHT22;10741;52.272;9.580;2023-02-15T04:09:40;-0.30;99.90
21167;DHT22;10741;52.272;9.580;2023-02-15T04:12:26;-0.30;99.90
21167;DHT22;10741;52.272;9.580;2023-02-15T04:14:52;-0.20;99.90
21167;DHT22;10741;52.272;9.580;2023-02-15T04:17:37;-0.30;99.90
21167;DHT22;10741;52.272;9.580;2023-02-15T04:20:03;-0.30;99.90
21167;DHT22;10741;52.272;9.580;2023-02-15T04:22:47;-0.30;99.90
21167;DHT22;10741;52.272;9.580;2023-02-15T04:25:31;-0.40;99.90
21167;DHT22;10741;52.272;9.580;2023-02-15T04:27:57;-0.40;99.90
21167;DHT22;10741;52.272;9.580;2023-02-15T04:30:25;-0.40;99.90
21167;DHT22;10741;52.272;9.580;2023-02-15T04:32:51;-0.50;99.90
21167;DHT22;10741;52.272;9.580;2023-02-15T04:35:17;-0.50;99.90
21167;DHT22;10741;52.272;9.580;2023-02-15T04:37:43;-0.50;99.90
21167;DHT22;10741;52.272;9.580;2023-02-15T04:40:14;-0.40;99.90
21167;DHT22;10741;52.272;9.580;2023-02-15T04:42:40;-0.40;99.90
21167;DHT22;10741;52.272;9.580;2023-02-15T04:45:06;-0.30;99.90
21167;DHT22;10741;52.272;9.580;2023-02-15T04:47:32;-0.40;99.90
21167;DHT22;10741;52.272;9.580;2023-02-15T04:49:57;-0.40;99.90
21167;DHT22;10741;52.272;9.580;2023-02-15T04:52:23;-0.40;99.90
21167;DHT22;10741;52.272;9.580;2023-02-15T04:54:49;-0.50;99.90
21167;DHT22;10741;52.272;9.580;2023-02-15T04:57:15;-0.50;99.90
21167;DHT22;10741;52.272;9.580;2023-02-15T04:59:40;-0.50;99.90
21167;DHT22;10741;52.272;9.580;2023-02-15T05:02:06;-0.50;99.90
21167;DHT22;10741;52.272;9.580;2023-02-15T05:04:32;-0.50;99.90
21167;DHT22;10741;52.272;9.580;2023-02-15T05:06:58;-0.60;99.90
21167;DHT22;10741;52.272;9.580;2023-02-15T05:09:24;-0.50;99.90
21167;DHT22;10741;52.272;9.580;2023-02-15T05:11:49;-0.50;99.90
21167;DHT22;10741;52.272;9.580;2023-02-15T05:14:15;-0.60;99.90
21167;DHT22;10741;52.272;9.580;2023-02-15T05:16:41;-0.60;99.90
21167;DHT22;10741;52.272;9.580;2023-02-15T05:19:07;-0.70;99.90
21167;DHT22;10741;52.272;9.580;2023-02-15T05:21:32;-0.70;99.90
21167;DHT22;10741;52.272;9.580;2023-02-15T05:23:58;-0.70;99.90
21167;DHT22;10741;52.272;9.580;2023-02-15T05:26:25;-0.60;99.90
21167;DHT22;10741;52.272;9.580;2023-02-15T05:29:09;-0.60;99.90
21167;DHT22;10741;52.272;9.580;2023-02-15T05:31:35;-0.60;99.90
21167;DHT22;10741;52.272;9.580;2023-02-15T05:34:02;-0.60;99.90
21167;DHT22;10741;52.272;9.580;2023-02-15T05:36:28;-0.60;99.90
21167;DHT22;10741;52.272;9.580;2023-02-15T05:38:54;-0.60;99.90
21167;DHT22;10741;52.272;9.580;2023-02-15T05:41:20;-0.60;99.90
21167;DHT22;10741;52.272;9.580;2023-02-15T05:43:46;-0.70;99.90
21167;DHT22;10741;52.272;9.580;2023-02-15T05:46:12;-0.70;99.90
21167;DHT22;10741;52.272;9.580;2023-02-15T05:48:38;-0.70;99.90
21167;DHT22;10741;52.272;9.580;2023-02-15T05:51:09;-0.70;99.90
21167;DHT22;10741;52.272;9.580;2023-02-15T05:53:37;-0.70;99.90
21167;DHT22;10741;52.272;9.580;2023-02-15T05:56:05;-0.70;99.90
21167;DHT22;10741;52.272;9.580;2023-02-15T05:58:36;-0.70;99.90
21167;DHT22;10741;52.272;9.580;2023-02-15T06:01:14;-0.70;99.90
21167;DHT22;10741;52.272;9.580;2023-02-15T06:03:40;-0.70;99.90
21167;DHT22;10741;52.272;9.580;2023-02-15T06:06:06;-0.70;99.90
21167;DHT22;10741;52.272;9.580;2023-02-15T06:08:33;-0.80;99.90
21167;DHT22;10741;52.272;9.580;2023-02-15T06:10:59;-0.80;99.90
21167;DHT22;10741;52.272;9.580;2023-02-15T06:13:25;-0.70;99.90
21167;DHT22;10741;52.272;9.580;2023-02-15T06:15:51;-0.70;99.90
21167;DHT22;10741;52.272;9.580;2023-02-15T06:18:17;-0.70;99.90
21167;DHT22;10741;52.272;9.580;2023-02-15T06:20:45;-0.70;99.90
21167;DHT22;10741;52.272;9.580;2023-02-15T06:23:11;-0.70;99.90
21167;DHT22;10741;52.272;9.580;2023-02-15T06:25:36;-0.80;99.90
21167;DHT22;10741;52.272;9.580;2023-02-15T06:28:02;-0.90;99.90
21167;DHT22;10741;52.272;9.580;2023-02-15T06:30:28;-0.90;99.90
21167;DHT22;10741;52.272;9.580;2023-02-15T06:32:54;-1.00;99.90
21167;DHT22;10741;52.272;9.580;2023-02-15T06:35:19;-1.00;99.90
21167;DHT22;10741;52.272;9.580;2023-02-15T06:37:45;-1.00;99.90
21167;DHT22;10741;52.272;9.580;2023-02-15T06:40:12;-0.90;99.90
21167;DHT22;10741;52.272;9.580;2023-02-15T06:42:38;-0.90;99.90
21167;DHT22;10741;52.272;9.580;2023-02-15T06:45:04;-0.90;99.90
21167;DHT22;10741;52.272;9.580;2023-02-15T06:47:30;-0.80;99.90
21167;DHT22;10741;52.272;9.580;2023-02-15T06:49:56;-0.70;99.90
21167;DHT22;10741;52.272;9.580;2023-02-15T06:52:23;-0.70;99.90
21167;DHT22;10741;52.272;9.580;2023-02-15T06:54:49;-0.70;99.90
21167;DHT22;10741;52.272;9.580;2023-02-15T06:57:14;-0.70;99.90
21167;DHT22;10741;52.272;9.580;2023-02-15T06:59:40;-0.70;99.90
21167;DHT22;10741;52.272;9.580;2023-02-15T07:02:06;-0.60;99.90
21167;DHT22;10741;52.272;9.580;2023-02-15T07:04:32;-0.60;99.90
21167;DHT22;10741;52.272;9.580;2023-02-15T07:06:57;-0.50;99.90
21167;DHT22;10741;52.272;9.580;2023-02-15T07:09:23;-0.40;99.90
21167;DHT22;10741;52.272;9.580;2023-02-15T07:11:49;-0.40;99.90
21167;DHT22;10741;52.272;9.580;2023-02-15T07:14:33;-0.30;99.90
21167;DHT22;10741;52.272;9.580;2023-02-15T07:16:59;-0.20;99.90
21167;DHT22;10741;52.272;9.580;2023-02-15T07:19:25;-0.10;99.90
21167;DHT22;10741;52.272;9.580;2023-02-15T07:21:50;0.00;99.90
21167;DHT22;10741;52.272;9.580;2023-02-15T07:24:16;0.00;99.90
21167;DHT22;10741;52.272;9.580;2023-02-15T07:26:42;0.10;99.90
21167;DHT22;10741;52.272;9.580;2023-02-15T07:29:08;0.20;99.90
21167;DHT22;10741;52.272;9.580;2023-02-15T07:31:33;0.40;99.90
21167;DHT22;10741;52.272;9.580;2023-02-15T07:33:59;1.20;99.90
21167;DHT22;10741;52.272;9.580;2023-02-15T07:36:25;0.80;99.90
21167;DHT22;10741;52.272;9.580;2023-02-15T07:38:51;1.10;99.90
21167;DHT22;10741;52.272;9.580;2023-02-15T07:41:17;1.40;99.90
21167;DHT22;10741;52.272;9.580;2023-02-15T07:43:44;1.50;99.90
21167;DHT22;10741;52.272;9.580;2023-02-15T07:46:13;1.60;99.90
21167;DHT22;10741;52.272;9.580;2023-02-15T07:48:40;1.70;99.90
21167;DHT22;10741;52.272;9.580;2023-02-15T07:51:09;2.10;99.90
21167;DHT22;10741;52.272;9.580;2023-02-15T07:53:36;2.60;99.90
21167;DHT22;10741;52.272;9.580;2023-02-15T07:56:04;3.00;99.90
21167;DHT22;10741;52.272;9.580;2023-02-15T07:58:30;3.00;99.90
21167;DHT22;10741;52.272;9.580;2023-02-15T08:01:15;3.30;99.90
21167;DHT22;10741;52.272;9.580;2023-02-15T08:03:41;3.70;99.90
21167;DHT22;10741;52.272;9.580;2023-02-15T08:06:07;4.20;99.90
21167;DHT22;10741;52.272;9.580;2023-02-15T08:08:36;4.40;99.90
21167;DHT22;10741;52.272;9.580;2023-02-15T08:11:18;4.60;99.90
21167;DHT22;10741;52.272;9.580;2023-02-15T08:18:56;5.40;99.90
21167;DHT22;10741;52.272;9.580;2023-02-15T08:21:22;5.80;99.90
21167;DHT22;10741;52.272;9.580;2023-02-15T08:23:48;6.20;99.90
21167;DHT22;10741;52.272;9.580;2023-02-15T08:26:14;6.60;99.90
21167;DHT22;10741;52.272;9.580;2023-02-15T08:28:41;7.20;99.90
21167;DHT22;10741;52.272;9.580;2023-02-15T08:31:08;7.40;99.90
21167;DHT22;10741;52.272;9.580;2023-02-15T08:33:36;7.70;99.90
21167;DHT22;10741;52.272;9.580;2023-02-15T08:36:09;8.50;99.90
21167;DHT22;10741;52.272;9.580;2023-02-15T08:38:35;8.90;99.90
21167;DHT22;10741;52.272;9.580;2023-02-15T08:41:16;9.20;99.90
21167;DHT22;10741;52.272;9.580;2023-02-15T08:43:42;9.30;99.90
21167;DHT22;10741;52.272;9.580;2023-02-15T08:46:10;9.40;99.90
21167;DHT22;10741;52.272;9.580;2023-02-15T08:48:36;9.40;99.90
21167;DHT22;10741;52.272;9.580;2023-02-15T08:51:13;10.00;99.90
21167;DHT22;10741;52.272;9.580;2023-02-15T08:53:41;10.40;99.90
21167;DHT22;10741;52.272;9.580;2023-02-15T08:56:08;10.80;99.90
21167;DHT22;10741;52.272;9.580;2023-02-15T08:58:34;11.80;99.90
21167;DHT22;10741;52.272;9.580;2023-02-15T09:01:00;12.10;99.90
21167;DHT22;10741;52.272;9.580;2023-02-15T09:03:28;11.90;99.90
21167;DHT22;10741;52.272;9.580;2023-02-15T09:05:58;12.30;99.90
21167;DHT22;10741;52.272;9.580;2023-02-15T09:08:25;12.70;99.90
21167;DHT22;10741;52.272;9.580;2023-02-15T09:10:51;13.10;99.90
21167;DHT22;10741;52.272;9.580;2023-02-15T09:13:17;13.50;99.90
21167;DHT22;10741;52.272;9.580;2023-02-15T09:15:42;14.10;99.90
21167;DHT22;10741;52.272;9.580;2023-02-15T09:18:08;13.60;99.90
21167;DHT22;10741;52.272;9.580;2023-02-15T09:20:37;13.70;99.90
21167;DHT22;10741;52.272;9.580;2023-02-15T09:23:03;14.00;99.90
21167;DHT22;10741;52.272;9.580;2023-02-15T09:25:28;14.00;99.90
21167;DHT22;10741;52.272;9.580;2023-02-15T09:27:54;14.10;99.90
21167;DHT22;10741;52.272;9.580;2023-02-15T09:30:20;13.40;99.90
21167;DHT22;10741;52.272;9.580;2023-02-15T09:32:47;13.30;99.90
21167;DHT22;10741;52.272;9.580;2023-02-15T09:35:13;14.30;99.90
21167;DHT22;10741;52.272;9.580;2023-02-15T09:37:39;14.60;99.90
21167;DHT22;10741;52.272;9.580;2023-02-15T09:40:05;14.80;99.90
21167;DHT22;10741;52.272;9.580;2023-02-15T09:45:23;14.60;99.90
21167;DHT22;10741;52.272;9.580;2023-02-15T10:12:38;13.80;99.90
21167;DHT22;10741;52.272;9.580;2023-02-15T10:18:10;13.50;99.90
21167;DHT22;10741;52.272;9.580;2023-02-15T10:20:53;13.30;99.90
21167;DHT22;10741;52.272;9.580;2023-02-15T10:23:25;12.90;99.90
21167;DHT22;10741;52.272;9.580;2023-02-15T10:26:16;12.20;99.90
21167;DHT22;10741;52.272;9.580;2023-02-15T10:31:49;11.30;99.90
21167;DHT22;10741;52.272;9.580;2023-02-15T10:37:13;10.80;99.90
21167;DHT22;10741;52.272;9.580;2023-02-15T10:45:06;11.60;99.90
21167;DHT22;10741;52.272;9.580;2023-02-15T11:05:20;12.90;99.90
21167;DHT22;10741;52.272;9.580;2023-02-15T11:07:48;13.20;99.90
21167;DHT22;10741;52.272;9.580;2023-02-15T11:10:28;12.60;99.90
21167;DHT22;10741;52.272;9.580;2023-02-15T11:12:57;12.60;99.90
21167;DHT22;10741;52.272;9.580;2023-02-15T11:15:36;12.60;99.90
21167;DHT22;10741;52.272;9.580;2023-02-15T11:23:18;12.70;99.90
21167;DHT22;10741;52.272;9.580;2023-02-15T11:25:48;13.00;99.90
21167;DHT22;10741;52.272;9.580;2023-02-15T11:28:43;13.20;99.90
21167;DHT22;10741;52.272;9.580;2023-02-15T11:31:19;13.40;99.90
21167;DHT22;10741;52.272;9.580;2023-02-15T11:33:58;13.70;99.90
21167;DHT22;10741;52.272;9.580;2023-02-15T11:36:32;14.00;99.90
21167;DHT22;10741;52.272;9.580;2023-02-15T11:39:04;14.30;99.90
21167;DHT22;10741;52.272;9.580;2023-02-15T11:41:34;13.90;99.90
21167;DHT22;10741;52.272;9.580;2023-02-15T11:44:10;14.00;99.90
21167;DHT22;10741;52.272;9.580;2023-02-15T11:46:39;14.30;99.90
21167;DHT22;10741;52.272;9.580;2023-02-15T11:51:50;14.40;99.90
21167;DHT22;10741;52.272;9.580;2023-02-15T11:54:20;14.60;99.90
21167;DHT22;10741;52.272;9.580;2023-02-15T11:56:47;14.40;99.90
21167;DHT22;10741;52.272;9.580;2023-02-15T11:59:21;14.50;99.90
21167;DHT22;10741;52.272;9.580;2023-02-15T12:01:50;14.50;99.90
21167;DHT22;10741;52.272;9.580;2023-02-15T12:04:29;14.90;99.90
21167;DHT22;10741;52.272;9.580;2023-02-15T12:07:13;14.90;99.90
21167;DHT22;10741;52.272;9.580;2023-02-15T12:09:55;15.30;99.90
21167;DHT22;10741;52.272;9.580;2023-02-15T12:14:52;16.00;98.30
21167;DHT22;10741;52.272;9.580;2023-02-15T12:17:21;16.30;97.60
21167;DHT22;10741;52.272;9.580;2023-02-15T12:19:48;15.70;99.70
21167;DHT22;10741;52.272;9.580;2023-02-15T12:22:26;16.00;99.00
21167;DHT22;10741;52.272;9.580;2023-02-15T12:24:59;16.20;97.90
21167;DHT22;10741;52.272;9.580;2023-02-15T12:27:33;16.30;98.60
21167;DHT22;10741;52.272;9.580;2023-02-15T12:30:04;16.40;99.00
21167;DHT22;10741;52.272;9.580;2023-02-15T12:32:48;16.30;98.10
21167;DHT22;10741;52.272;9.580;2023-02-15T12:35:29;16.00;98.00
21167;DHT22;10741;52.272;9.580;2023-02-15T12:38:01;15.70;98.80
21167;DHT22;10741;52.272;9.580;2023-02-15T12:40:29;15.60;99.80
21167;DHT22;10741;52.272;9.580;2023-02-15T12:42:55;16.00;98.60
21167;DHT22;10741;52.272;9.580;2023-02-15T12:45:32;16.30;98.30
21167;DHT22;10741;52.272;9.580;2023-02-15T12:48:19;16.30;97.80
21167;DHT22;10741;52.272;9.580;2023-02-15T12:50:49;16.50;97.10
21167;DHT22;10741;52.272;9.580;2023-02-15T12:53:19;16.60;98.00
21167;DHT22;10741;52.272;9.580;2023-02-15T12:56:06;17.00;97.10
21167;DHT22;10741;52.272;9.580;2023-02-15T12:58:36;17.40;97.00
21167;DHT22;10741;52.272;9.580;2023-02-15T13:03:35;17.40;95.50
21167;DHT22;10741;52.272;9.580;2023-02-15T13:06:04;17.40;95.80
21167;DHT22;10741;52.272;9.580;2023-02-15T13:11:34;17.60;95.50
21167;DHT22;10741;52.272;9.580;2023-02-15T13:14:02;17.30;95.90
21167;DHT22;10741;52.272;9.580;2023-02-15T13:16:34;16.90;96.60
21167;DHT22;10741;52.272;9.580;2023-02-15T13:19:18;17.30;95.90
21167;DHT22;10741;52.272;9.580;2023-02-15T13:21:51;17.40;95.70
21167;DHT22;10741;52.272;9.580;2023-02-15T13:24:27;17.30;95.40
21167;DHT22;10741;52.272;9.580;2023-02-15T13:26:56;17.00;96.10
21167;DHT22;10741;52.272;9.580;2023-02-15T13:29:34;16.10;96.90
21167;DHT22;10741;52.272;9.580;2023-02-15T13:32:24;15.40;98.40
21167;DHT22;10741;52.272;9.580;2023-02-15T13:34:56;15.20;99.00
21167;DHT22;10741;52.272;9.580;2023-02-15T13:40:26;15.30;99.20
21167;DHT22;10741;52.272;9.580;2023-02-15T13:43:03;16.00;98.80
21167;DHT22;10741;52.272;9.580;2023-02-15T13:56:28;16.50;96.70
21167;DHT22;10741;52.272;9.580;2023-02-15T14:01:44;16.10;97.30
21167;DHT22;10741;52.272;9.580;2023-02-15T14:07:34;14.80;98.80
21167;DHT22;10741;52.272;9.580;2023-02-15T14:15:36;13.80;99.80
21167;DHT22;10741;52.272;9.580;2023-02-15T14:18:24;13.80;99.90
21167;DHT22;10741;52.272;9.580;2023-02-15T14:21:00;14.00;99.60
21167;DHT22;10741;52.272;9.580;2023-02-15T14:28:55;13.60;99.90
21167;DHT22;10741;52.272;9.580;2023-02-15T14:31:29;13.50;99.90
21167;DHT22;10741;52.272;9.580;2023-02-15T14:33:57;13.30;99.90
21167;DHT22;10741;52.272;9.580;2023-02-15T14:36:24;13.00;99.90
21167;DHT22;10741;52.272;9.580;2023-02-15T14:42:09;12.90;99.90
21167;DHT22;10741;52.272;9.580;2023-02-15T14:45:19;13.10;99.90
21167;DHT22;10741;52.272;9.580;2023-02-15T14:47:59;12.90;99.90
21167;DHT22;10741;52.272;9.580;2023-02-15T14:50:42;12.90;99.90
21167;DHT22;10741;52.272;9.580;2023-02-15T14:56:16;12.50;99.90
21167;DHT22;10741;52.272;9.580;2023-02-15T15:01:32;12.70;99.90
21167;DHT22;10741;52.272;9.580;2023-02-15T15:04:07;13.10;99.90
21167;DHT22;10741;52.272;9.580;2023-02-15T15:06:37;13.40;99.90
21167;DHT22;10741;52.272;9.580;2023-02-15T15:11:46;13.60;99.90
21167;DHT22;10741;52.272;9.580;2023-02-15T15:16:57;12.80;99.90
21167;DHT22;10741;52.272;9.580;2023-02-15T15:22:22;12.00;99.90
21167;DHT22;10741;52.272;9.580;2023-02-15T15:24:51;11.70;99.90
21167;DHT22;10741;52.272;9.580;2023-02-15T15:27:44;11.40;99.90
21167;DHT22;10741;52.272;9.580;2023-02-15T15:49:20;9.50;99.90
21167;DHT22;10741;52.272;9.580;2023-02-15T15:51:47;9.30;99.90
21167;DHT22;10741;52.272;9.580;2023-02-15T15:54:21;9.20;99.90
21167;DHT22;10741;52.272;9.580;2023-02-15T15:56:53;9.20;99.90
21167;DHT22;10741;52.272;9.580;2023-02-15T15:59:23;9.10;99.90
21167;DHT22;10741;52.272;9.580;2023-02-15T16:01:50;9.00;99.90
21167;DHT22;10741;52.272;9.580;2023-02-15T16:04:27;8.80;99.90
21167;DHT22;10741;52.272;9.580;2023-02-15T16:06:55;8.70;99.90
21167;DHT22;10741;52.272;9.580;2023-02-15T16:09:26;8.60;99.90
21167;DHT22;10741;52.272;9.580;2023-02-15T16:11:57;8.50;99.90
21167;DHT22;10741;52.272;9.580;2023-02-15T16:14:39;8.50;99.90
21167;DHT22;10741;52.272;9.580;2023-02-15T16:17:08;8.30;99.90
21167;DHT22;10741;52.272;9.580;2023-02-15T16:19:40;8.30;99.90
21167;DHT22;10741;52.272;9.580;2023-02-15T16:22:16;8.20;99.90
21167;DHT22;10741;52.272;9.580;2023-02-15T16:27:42;8.00;99.90
21167;DHT22;10741;52.272;9.580;2023-02-15T16:33:10;7.80;99.90
21167;DHT22;10741;52.272;9.580;2023-02-15T16:35:39;7.80;99.90
21167;DHT22;10741;52.272;9.580;2023-02-15T16:38:08;7.80;99.90
21167;DHT22;10741;52.272;9.580;2023-02-15T16:40:47;7.80;99.90
21167;DHT22;10741;52.272;9.580;2023-02-15T16:43:18;7.70;99.90
21167;DHT22;10741;52.272;9.580;2023-02-15T16:45:46;7.60;99.90
21167;DHT22;10741;52.272;9.580;2023-02-15T16:48:21;7.50;99.90
21167;DHT22;10741;52.272;9.580;2023-02-15T16:50:50;7.40;99.90
21167;DHT22;10741;52.272;9.580;2023-02-15T16:53:20;7.20;99.90
21167;DHT22;10741;52.272;9.580;2023-02-15T16:55:52;7.00;99.90
21167;DHT22;10741;52.272;9.580;2023-02-15T16:58:26;6.80;99.90
21167;DHT22;10741;52.272;9.580;2023-02-15T17:00:56;6.60;99.90
21167;DHT22;10741;52.272;9.580;2023-02-15T17:03:24;6.50;99.90
21167;DHT22;10741;52.272;9.580;2023-02-15T17:05:54;6.40;99.90
21167;DHT22;10741;52.272;9.580;2023-02-15T17:08:41;6.30;99.90
21167;DHT22;10741;52.272;9.580;2023-02-15T17:13:38;5.90;99.90
21167;DHT22;10741;52.272;9.580;2023-02-15T17:18:33;5.60;99.90
21167;DHT22;10741;52.272;9.580;2023-02-15T17:21:11;5.50;99.90
21167;DHT22;10741;52.272;9.580;2023-02-15T17:23:46;5.30;99.90
21167;DHT22;10741;52.272;9.580;2023-02-15T17:26:27;5.20;99.90
21167;DHT22;10741;52.272;9.580;2023-02-15T17:29:20;5.20;99.90
21167;DHT22;10741;52.272;9.580;2023-02-15T17:31:49;5.10;99.90
21167;DHT22;10741;52.272;9.580;2023-02-15T17:34:48;5.10;99.90
21167;DHT22;10741;52.272;9.580;2023-02-15T17:39:55;5.00;99.90
21167;DHT22;10741;52.272;9.580;2023-02-15T17:42:21;5.00;99.90
21167;DHT22;10741;52.272;9.580;2023-02-15T17:44:48;4.90;99.90
21167;DHT22;10741;52.272;9.580;2023-02-15T17:47:19;4.80;99.90
21167;DHT22;10741;52.272;9.580;2023-02-15T17:49:46;4.70;99.90
21167;DHT22;10741;52.272;9.580;2023-02-15T17:52:15;4.80;99.90
21167;DHT22;10741;52.272;9.580;2023-02-15T17:54:42;5.10;99.90
21167;DHT22;10741;52.272;9.580;2023-02-15T17:57:27;5.40;99.90
21167;DHT22;10741;52.272;9.580;2023-02-15T17:59:53;5.70;99.90
21167;DHT22;10741;52.272;9.580;2023-02-15T18:02:38;5.90;99.90
21167;DHT22;10741;52.272;9.580;2023-02-15T18:05:22;6.20;99.90
21167;DHT22;10741;52.272;9.580;2023-02-15T18:08:14;6.30;99.90
21167;DHT22;10741;52.272;9.580;2023-02-15T18:11:00;6.20;99.90
21167;DHT22;10741;52.272;9.580;2023-02-15T18:13:45;6.20;99.90
21167;DHT22;10741;52.272;9.580;2023-02-15T18:16:16;6.00;99.90
21167;DHT22;10741;52.272;9.580;2023-02-15T18:18:43;5.90;99.90
21167;DHT22;10741;52.272;9.580;2023-02-15T18:21:11;5.60;99.90
21167;DHT22;10741;52.272;9.580;2023-02-15T18:23:38;5.40;99.90
21167;DHT22;10741;52.272;9.580;2023-02-15T18:26:04;5.30;99.90
21167;DHT22;10741;52.272;9.580;2023-02-15T18:28:30;5.20;99.90
21167;DHT22;10741;52.272;9.580;2023-02-15T18:30:57;5.10;99.90
21167;DHT22;10741;52.272;9.580;2023-02-15T18:33:44;5.20;99.90
21167;DHT22;10741;52.272;9.580;2023-02-15T18:36:18;5.50;99.90
21167;DHT22;10741;52.272;9.580;2023-02-15T18:38:44;6.10;99.90
21167;DHT22;10741;52.272;9.580;2023-02-15T18:41:16;6.30;99.90
21167;DHT22;10741;52.272;9.580;2023-02-15T18:43:44;6.30;99.90
21167;DHT22;10741;52.272;9.580;2023-02-15T18:46:10;6.20;99.90
21167;DHT22;10741;52.272;9.580;2023-02-15T18:48:35;6.20;99.90
21167;DHT22;10741;52.272;9.580;2023-02-15T18:51:01;6.40;99.90
21167;DHT22;10741;52.272;9.580;2023-02-15T18:53:27;6.40;99.90
21167;DHT22;10741;52.272;9.580;2023-02-15T18:55:53;6.60;99.90
21167;DHT22;10741;52.272;9.580;2023-02-15T18:58:20;6.70;99.90
21167;DHT22;10741;52.272;9.580;2023-02-15T19:00:48;6.80;99.90
21167;DHT22;10741;52.272;9.580;2023-02-15T19:03:15;6.80;99.90
21167;DHT22;10741;52.272;9.580;2023-02-15T19:05:43;6.80;99.90
21167;DHT22;10741;52.272;9.580;2023-02-15T19:08:21;6.80;99.90
21167;DHT22;10741;52.272;9.580;2023-02-15T19:10:49;6.60;99.90
21167;DHT22;10741;52.272;9.580;2023-02-15T19:13:15;6.50;99.90
21167;DHT22;10741;52.272;9.580;2023-02-15T19:15:42;6.30;99.90
21167;DHT22;10741;52.272;9.580;2023-02-15T19:18:08;6.10;99.90
21167;DHT22;10741;52.272;9.580;2023-02-15T19:20:43;6.10;99.90